createdAt,value
2022-09-21T00:01:16.196Z,102627.13
2022-09-21T00:03:44.097Z,102625.22
2022-09-21T00:06:14.082Z,102628.66
2022-09-21T00:08:40.910Z,102622.69
2022-09-21T00:11:08.667Z,102620.63
2022-09-21T00:13:37.734Z,102615.59
2022-09-21T00:16:08.902Z,102619.16
2022-09-21T00:18:36.295Z,102614.53
2022-09-21T00:21:10.875Z,102626.56
2022-09-21T00:23:37.538Z,102617.94
2022-09-21T00:26:10.802Z,102618.56
2022-09-21T00:28:38.128Z,102612.91
2022-09-21T00:31:07.828Z,102617.78
2022-09-21T00:33:34.899Z,102610.63
2022-09-21T00:36:10.343Z,102618.00
2022-09-21T00:38:38.291Z,102618.44
2022-09-21T00:41:06.759Z,102620.75
2022-09-21T00:43:40.150Z,102617.19
2022-09-21T00:46:32.547Z,102616.78
2022-09-21T00:48:59.158Z,102617.41
2022-09-21T00:51:26.119Z,102620.16
2022-09-21T00:53:56.013Z,102618.91
2022-09-21T00:56:23.106Z,102617.84
2022-09-21T00:58:52.328Z,102626.09
2022-09-21T01:01:19.703Z,102625.66
2022-09-21T01:03:47.263Z,102622.91
2022-09-21T01:06:16.834Z,102619.16
2022-09-21T01:08:46.130Z,102637.97
2022-09-21T01:11:15.406Z,102640.69
2022-09-21T01:14:11.231Z,102635.63
2022-09-21T01:17:15.298Z,102631.19
2022-09-21T01:20:20.074Z,102621.25
2022-09-21T01:23:04.490Z,102627.16
2022-09-21T01:25:48.960Z,102625.47
2022-09-21T01:28:41.759Z,102624.84
2022-09-21T01:31:15.294Z,102629.50
2022-09-21T01:33:52.467Z,102624.03
2022-09-21T01:36:24.990Z,102630.13
2022-09-21T01:38:58.403Z,102626.56
2022-09-21T01:41:28.731Z,102632.91
2022-09-21T01:44:01.447Z,102637.09
2022-09-21T01:46:32.214Z,102635.00
2022-09-21T01:49:06.653Z,102636.28
2022-09-21T01:51:34.607Z,102624.88
2022-09-21T01:54:20.210Z,102628.47
2022-09-21T01:56:52.931Z,102630.97
2022-09-21T01:59:30.399Z,102627.38
2022-09-21T02:02:08.852Z,102626.34
2022-09-21T02:04:35.661Z,102626.78
2022-09-21T02:07:02.574Z,102632.88
2022-09-21T02:09:29.599Z,102628.44
2022-09-21T02:11:58.115Z,102625.94
2022-09-21T02:14:25.601Z,102621.06
2022-09-21T02:17:19.095Z,102635.44
2022-09-21T02:19:54.546Z,102635.63
2022-09-21T02:22:54.829Z,102632.91
2022-09-21T02:25:34.171Z,102634.38
2022-09-21T02:28:25.070Z,102621.50
2022-09-21T02:31:24.101Z,102635.63
2022-09-21T02:33:59.315Z,102630.38
2022-09-21T02:36:39.048Z,102631.34
2022-09-21T02:39:17.738Z,102632.19
2022-09-21T02:42:08.482Z,102627.13
2022-09-21T02:44:40.886Z,102618.50
2022-09-21T02:47:28.756Z,102634.50
2022-09-21T02:50:01.653Z,102620.16
2022-09-21T02:52:30.674Z,102623.97
2022-09-21T02:54:57.344Z,102625.63
2022-09-21T02:57:24.360Z,102626.66
2022-09-21T02:59:51.565Z,102618.00
2022-09-21T03:02:18.230Z,102624.72
2022-09-21T03:04:47.612Z,102629.78
2022-09-21T03:07:16.180Z,102626.00
2022-09-21T03:09:42.836Z,102622.41
2022-09-21T03:12:09.639Z,102618.81
2022-09-21T03:14:36.157Z,102621.13
2022-09-21T03:17:02.726Z,102624.66
2022-09-21T03:19:29.300Z,102621.91
2022-09-21T03:21:55.812Z,102630.53
2022-09-21T03:24:51.455Z,102637.03
2022-09-21T03:27:20.791Z,102626.25
2022-09-21T03:29:47.745Z,102635.50
2022-09-21T03:32:14.412Z,102637.22
2022-09-21T03:34:41.636Z,102635.50
2022-09-21T03:37:09.633Z,102642.66
2022-09-21T03:39:36.658Z,102632.72
2022-09-21T03:42:04.535Z,102647.88
2022-09-21T03:44:31.043Z,102641.78
2022-09-21T03:46:58.161Z,102640.25
2022-09-21T03:49:25.070Z,102645.09
2022-09-21T03:51:51.579Z,102639.81
2022-09-21T03:54:18.128Z,102645.88
2022-09-21T03:56:44.919Z,102643.38
2022-09-21T03:59:14.085Z,102640.16
2022-09-21T04:01:41.373Z,102645.41
2022-09-21T04:04:08.036Z,102642.00
2022-09-21T04:06:34.932Z,102649.19
2022-09-21T04:09:02.989Z,102641.56
2022-09-21T04:11:30.043Z,102644.25
2022-09-21T04:13:57.269Z,102638.13
2022-09-21T04:16:25.368Z,102639.84
2022-09-21T04:18:51.870Z,102629.03
2022-09-21T04:21:19.419Z,102635.59
2022-09-21T04:23:46.044Z,102630.88
2022-09-21T04:26:30.551Z,102636.41
2022-09-21T04:28:57.239Z,102635.03
2022-09-21T04:31:25.267Z,102632.03
2022-09-21T04:33:53.268Z,102639.19
2022-09-21T04:36:21.845Z,102643.78
2022-09-21T04:38:48.652Z,102639.41
2022-09-21T04:41:16.301Z,102647.53
2022-09-21T04:43:44.815Z,102648.78
2022-09-21T04:46:17.019Z,102652.56
2022-09-21T04:48:43.817Z,102651.09
2022-09-21T04:51:11.570Z,102651.22
2022-09-21T04:53:39.674Z,102648.09
2022-09-21T04:56:07.310Z,102653.75
2022-09-21T04:58:34.034Z,102655.19
2022-09-21T05:01:01.887Z,102658.13
2022-09-21T05:03:28.423Z,102657.47
2022-09-21T05:05:56.558Z,102663.13
2022-09-21T05:08:43.689Z,102658.91
2022-09-21T05:11:14.454Z,102654.59
2022-09-21T05:13:41.328Z,102651.69
2022-09-21T05:16:08.303Z,102660.91
2022-09-21T05:18:35.422Z,102666.16
2022-09-21T05:21:03.716Z,102664.28
2022-09-21T05:23:31.406Z,102671.38
2022-09-21T05:25:59.563Z,102672.41
2022-09-21T05:28:26.985Z,102673.28
2022-09-21T05:31:16.580Z,102682.50
2022-09-21T05:33:52.171Z,102679.94
2022-09-21T05:36:31.978Z,102675.53
2022-09-21T05:38:58.697Z,102681.13
2022-09-21T05:41:25.526Z,102681.88
2022-09-21T05:43:52.147Z,102683.59
2022-09-21T05:46:42.380Z,102688.06
2022-09-21T05:49:35.839Z,102689.03
2022-09-21T05:52:07.619Z,102684.63
2022-09-21T05:54:55.743Z,102691.66
2022-09-21T05:57:30.775Z,102693.66
2022-09-21T06:00:18.140Z,102701.28
2022-09-21T06:03:04.088Z,102694.50
2022-09-21T06:05:30.553Z,102696.38
2022-09-21T06:07:57.030Z,102685.00
2022-09-21T06:10:25.048Z,102699.97
2022-09-21T06:12:51.514Z,102699.13
2022-09-21T06:15:18.106Z,102702.06
2022-09-21T06:17:44.568Z,102701.66
2022-09-21T06:20:11.083Z,102697.69
2022-09-21T06:22:37.596Z,102700.25
2022-09-21T06:25:04.325Z,102703.44
2022-09-21T06:27:30.880Z,102696.72
2022-09-21T06:29:57.412Z,102695.97
2022-09-21T06:32:24.605Z,102703.31
2022-09-21T06:34:51.079Z,102693.13
2022-09-21T06:37:17.663Z,102698.59
2022-09-21T06:39:44.242Z,102701.09
2022-09-21T06:42:10.747Z,102702.22
2022-09-21T06:44:37.210Z,102697.00
2022-09-21T06:47:03.820Z,102704.63
2022-09-21T06:49:30.348Z,102703.63
2022-09-21T06:51:56.872Z,102703.91
2022-09-21T06:54:24.572Z,102707.28
2022-09-21T06:56:51.110Z,102704.41
2022-09-21T06:59:17.593Z,102704.88
2022-09-21T07:01:44.338Z,102710.00
2022-09-21T07:04:10.964Z,102709.19
2022-09-21T07:06:37.452Z,102707.94
2022-09-21T07:11:50.750Z,102704.28
2022-09-21T07:14:17.218Z,102703.69
2022-09-21T07:16:43.782Z,102707.50
2022-09-21T07:19:11.535Z,102704.00
2022-09-21T07:21:38.556Z,102709.06
2022-09-21T07:24:09.487Z,102709.94
2022-09-21T07:26:38.390Z,102715.84
2022-09-21T07:29:05.131Z,102707.69
2022-09-21T07:31:31.885Z,102710.66
2022-09-21T07:33:59.062Z,102699.97
2022-09-21T07:36:25.764Z,102706.91
2022-09-21T07:38:53.923Z,102703.59
2022-09-21T07:41:21.203Z,102698.75
2022-09-21T07:43:47.671Z,102700.72
2022-09-21T07:46:15.249Z,102703.66
2022-09-21T07:48:42.407Z,102701.56
2022-09-21T07:51:11.976Z,102707.47
2022-09-21T07:53:41.525Z,102706.88
2022-09-21T07:56:14.409Z,102708.38
2022-09-21T07:58:59.675Z,102697.03
2022-09-21T08:01:27.425Z,102692.59
2022-09-21T08:03:55.882Z,102695.16
2022-09-21T08:06:24.075Z,102701.47
2022-09-21T08:08:56.617Z,102700.44
2022-09-21T08:11:25.819Z,102686.53
2022-09-21T08:13:53.634Z,102695.19
2022-09-21T08:16:20.537Z,102696.06
2022-09-21T08:18:47.068Z,102698.19
2022-09-21T08:21:14.251Z,102699.50
2022-09-21T08:23:42.539Z,102693.78
2022-09-21T08:26:17.365Z,102700.53
2022-09-21T08:28:44.414Z,102707.72
2022-09-21T08:31:10.991Z,102709.66
2022-09-21T08:33:37.518Z,102714.09
2022-09-21T08:36:04.692Z,102706.72
2022-09-21T08:38:36.672Z,102708.41
2022-09-21T08:41:31.293Z,102716.63
2022-09-21T08:44:04.229Z,102709.91
2022-09-21T08:46:33.706Z,102712.22
2022-09-21T08:49:06.921Z,102722.75
2022-09-21T08:51:37.882Z,102713.28
2022-09-21T08:54:18.271Z,102717.28
2022-09-21T08:57:03.897Z,102724.44
2022-09-21T08:59:31.361Z,102715.78
2022-09-21T09:02:10.486Z,102723.81
2022-09-21T09:04:49.796Z,102724.66
2022-09-21T09:07:54.303Z,102727.81
2022-09-21T09:10:47.585Z,102726.75
2022-09-21T09:13:28.156Z,102729.28
2022-09-21T09:16:20.812Z,102717.25
2022-09-21T09:18:57.505Z,102721.84
2022-09-21T09:21:39.084Z,102728.19
2022-09-21T09:24:27.002Z,102725.22
2022-09-21T09:27:17.581Z,102732.56
2022-09-21T09:30:03.577Z,102731.50
2022-09-21T09:32:46.896Z,102732.09
2022-09-21T09:35:28.429Z,102727.88
2022-09-21T09:37:58.541Z,102726.63
2022-09-21T09:41:02.466Z,102732.78
2022-09-21T09:43:39.651Z,102731.28
2022-09-21T09:46:15.107Z,102725.94
2022-09-21T09:48:55.035Z,102736.13
2022-09-21T09:51:21.608Z,102728.72
2022-09-21T09:53:48.212Z,102723.44
2022-09-21T09:56:14.824Z,102729.31
2022-09-21T09:58:50.667Z,102729.72
2022-09-21T10:01:42.621Z,102738.16
2022-09-21T10:04:17.985Z,102734.53
2022-09-21T10:06:46.770Z,102724.16
2022-09-21T10:09:36.645Z,102732.81
2022-09-21T10:12:24.714Z,102727.09
2022-09-21T10:15:00.755Z,102728.13
2022-09-21T10:17:27.835Z,102716.25
2022-09-21T10:20:01.526Z,102721.91
2022-09-21T10:22:29.081Z,102718.94
2022-09-21T10:24:58.966Z,102718.06
2022-09-21T10:27:35.600Z,102723.28
2022-09-21T10:30:02.237Z,102708.09
2022-09-21T10:32:29.731Z,102717.53
2022-09-21T10:35:15.662Z,102713.25
2022-09-21T10:37:44.900Z,102713.44
2022-09-21T10:40:17.241Z,102715.75
2022-09-21T10:42:44.059Z,102709.34
2022-09-21T10:45:17.663Z,102707.81
2022-09-21T10:47:47.401Z,102704.22
2022-09-21T10:50:36.688Z,102701.63
2022-09-21T10:53:08.975Z,102702.84
2022-09-21T10:56:15.989Z,102700.44
2022-09-21T10:59:11.640Z,102709.47
2022-09-21T11:01:44.959Z,102705.22
2022-09-21T11:04:19.412Z,102696.56
2022-09-21T11:06:52.213Z,102699.53
2022-09-21T11:09:25.304Z,102709.22
2022-09-21T11:12:02.403Z,102694.75
2022-09-21T11:14:45.478Z,102697.75
2022-09-21T11:17:26.335Z,102695.44
2022-09-21T11:20:08.659Z,102694.81
2022-09-21T11:23:10.864Z,102696.50
2022-09-21T11:25:47.256Z,102693.53
2022-09-21T11:28:40.772Z,102690.66
2022-09-21T11:31:14.583Z,102683.56
2022-09-21T11:34:15.600Z,102689.25
2022-09-21T11:37:10.086Z,102682.53
2022-09-21T11:40:25.101Z,102681.50
2022-09-21T11:43:10.255Z,102683.56
2022-09-21T11:45:50.350Z,102680.47
2022-09-21T11:48:37.978Z,102683.00
2022-09-21T11:51:19.197Z,102669.31
2022-09-21T11:53:46.625Z,102666.28
2022-09-21T11:56:24.961Z,102677.88
2022-09-21T11:59:06.798Z,102666.31
2022-09-21T12:01:36.609Z,102661.16
2022-09-21T12:04:42.257Z,102668.34
2022-09-21T12:07:20.758Z,102673.63
2022-09-21T12:10:11.795Z,102666.53
2022-09-21T12:12:43.768Z,102655.72
2022-09-21T12:15:19.683Z,102658.47
2022-09-21T12:18:07.674Z,102655.84
2022-09-21T12:21:04.895Z,102652.84
2022-09-21T12:23:49.174Z,102653.50
2022-09-21T12:26:20.896Z,102651.13
2022-09-21T12:28:56.271Z,102640.97
2022-09-21T12:31:31.570Z,102637.47
2022-09-21T12:34:03.531Z,102639.91
2022-09-21T12:36:47.560Z,102631.22
2022-09-21T12:39:49.684Z,102635.16
2022-09-21T12:42:22.271Z,102620.41
2022-09-21T12:44:58.240Z,102626.25
2022-09-21T12:47:45.588Z,102624.00
2022-09-21T12:50:26.051Z,102619.97
2022-09-21T12:52:54.694Z,102613.16
2022-09-21T12:55:32.102Z,102620.22
2022-09-21T12:58:15.257Z,102614.00
2022-09-21T13:01:12.829Z,102611.06
2022-09-21T13:03:53.202Z,102607.06
2022-09-21T13:06:41.013Z,102613.69
2022-09-21T13:09:12.608Z,102616.97
2022-09-21T13:11:54.287Z,102606.97
2022-09-21T13:14:22.632Z,102614.00
2022-09-21T13:17:00.388Z,102610.19
2022-09-21T13:19:31.018Z,102606.13
2022-09-21T13:22:19.768Z,102608.97
2022-09-21T13:25:02.899Z,102607.38
2022-09-21T13:28:19.582Z,102601.44
2022-09-21T13:31:18.485Z,102597.19
2022-09-21T13:34:28.417Z,102592.38
2022-09-21T13:37:19.175Z,102590.78
2022-09-21T13:39:51.162Z,102588.63
2022-09-21T13:42:32.791Z,102594.06
2022-09-21T13:45:15.448Z,102597.66
2022-09-21T13:47:47.428Z,102590.22
2022-09-21T13:50:20.658Z,102586.50
2022-09-21T13:52:52.218Z,102595.25
2022-09-21T13:55:29.319Z,102584.97
2022-09-21T13:57:58.825Z,102586.78
2022-09-21T14:00:32.408Z,102583.22
2022-09-21T14:03:04.024Z,102586.13
2022-09-21T14:05:42.543Z,102578.09
2022-09-21T14:08:14.729Z,102576.59
2022-09-21T14:10:57.295Z,102580.59
2022-09-21T14:13:32.687Z,102579.81
2022-09-21T14:16:37.252Z,102570.09
2022-09-21T14:19:26.759Z,102567.34
2022-09-21T14:22:08.171Z,102574.97
2022-09-21T14:24:49.893Z,102561.34
2022-09-21T14:27:32.136Z,102568.97
2022-09-21T14:30:19.919Z,102554.66
2022-09-21T14:32:49.192Z,102554.66
2022-09-21T14:35:22.820Z,102556.91
2022-09-21T14:37:56.198Z,102558.00
2022-09-21T14:40:25.362Z,102560.59
2022-09-21T14:42:58.182Z,102558.19
2022-09-21T14:45:45.947Z,102554.84
2022-09-21T14:48:30.369Z,102555.94
2022-09-21T14:51:19.511Z,102546.47
2022-09-21T14:54:08.568Z,102545.00
2022-09-21T14:57:19.033Z,102544.59
2022-09-21T14:59:53.299Z,102540.97
2022-09-21T15:02:29.262Z,102539.94
2022-09-21T15:05:12.228Z,102528.56
2022-09-21T15:08:01.187Z,102536.75
2022-09-21T15:10:56.812Z,102533.50
2022-09-21T15:13:38.501Z,102530.22
2022-09-21T15:16:17.272Z,102531.47
2022-09-21T15:18:46.960Z,102524.13
2022-09-21T15:21:32.921Z,102525.94
2022-09-21T15:24:10.276Z,102517.19
2022-09-21T15:26:40.280Z,102518.56
2022-09-21T15:29:10.713Z,102516.69
2022-09-21T15:31:41.956Z,102521.72
2022-09-21T15:34:11.152Z,102510.31
2022-09-21T15:36:40.448Z,102511.34
2022-09-21T15:39:07.483Z,102511.97
2022-09-21T15:41:44.687Z,102518.34
2022-09-21T15:44:23.824Z,102518.94
2022-09-21T15:46:57.759Z,102528.03
2022-09-21T15:49:24.929Z,102514.13
2022-09-21T15:51:58.582Z,102510.78
2022-09-21T15:54:37.884Z,102504.16
2022-09-21T15:57:24.009Z,102497.75
2022-09-21T15:59:51.083Z,102501.63
2022-09-21T16:02:23.484Z,102504.72
2022-09-21T16:04:52.485Z,102506.38
2022-09-21T16:08:03.642Z,102514.78
2022-09-21T16:10:30.098Z,102508.00
2022-09-21T16:13:33.778Z,102502.50
2022-09-21T16:16:06.274Z,102492.97
2022-09-21T16:18:46.670Z,102501.31
2022-09-21T16:21:23.629Z,102499.66
2022-09-21T16:23:54.652Z,102505.72
2022-09-21T16:26:28.642Z,102495.16
2022-09-21T16:29:23.901Z,102498.69
2022-09-21T16:31:51.382Z,102504.47
2022-09-21T16:34:36.721Z,102508.38
2022-09-21T16:37:28.629Z,102501.13
2022-09-21T16:39:59.628Z,102497.69
2022-09-21T16:42:32.732Z,102500.97
2022-09-21T16:45:00.546Z,102505.13
2022-09-21T16:47:27.957Z,102499.50
2022-09-21T16:50:02.431Z,102516.97
2022-09-21T16:52:30.109Z,102513.88
2022-09-21T16:54:58.569Z,102518.00
2022-09-21T16:57:26.074Z,102510.16
2022-09-21T16:59:52.861Z,102509.84
2022-09-21T17:02:19.379Z,102500.00
2022-09-21T17:04:45.889Z,102508.50
2022-09-21T17:07:13.933Z,102508.84
2022-09-21T17:09:44.328Z,102513.16
2022-09-21T17:12:13.414Z,102511.44
2022-09-21T17:14:45.737Z,102519.69
2022-09-21T17:17:19.621Z,102512.69
2022-09-21T17:19:49.617Z,102510.69
2022-09-21T17:22:19.504Z,102510.91
2022-09-21T17:24:51.334Z,102507.44
2022-09-21T17:27:22.483Z,102509.28
2022-09-21T17:29:50.015Z,102510.34
2022-09-21T17:32:22.478Z,102511.88
2022-09-21T17:34:58.674Z,102512.50
2022-09-21T17:37:25.318Z,102514.81
2022-09-21T17:39:53.483Z,102509.28
2022-09-21T17:42:24.991Z,102514.19
2022-09-21T17:45:13.095Z,102517.28
2022-09-21T17:47:40.807Z,102515.59
2022-09-21T17:50:13.045Z,102514.44
2022-09-21T17:53:02.222Z,102510.59
2022-09-21T17:55:29.358Z,102515.88
2022-09-21T17:58:14.192Z,102512.28
2022-09-21T18:01:01.878Z,102516.97
2022-09-21T18:03:30.514Z,102520.25
2022-09-21T18:06:00.467Z,102510.75
2022-09-21T18:08:33.144Z,102510.31
2022-09-21T18:11:18.439Z,102515.19
2022-09-21T18:13:57.306Z,102511.66
2022-09-21T18:16:30.980Z,102526.31
2022-09-21T18:19:05.652Z,102519.88
2022-09-21T18:21:39.509Z,102512.16
2022-09-21T18:24:18.946Z,102525.59
2022-09-21T18:26:45.703Z,102521.88
2022-09-21T18:29:38.846Z,102531.56
2022-09-21T18:32:40.981Z,102527.34
2022-09-21T18:35:24.454Z,102527.31
2022-09-21T18:38:34.357Z,102535.41
2022-09-21T18:41:21.984Z,102530.66
2022-09-21T18:44:04.176Z,102529.69
2022-09-21T18:46:39.670Z,102532.78
2022-09-21T18:49:50.411Z,102528.97
2022-09-21T18:52:45.967Z,102528.81
2022-09-21T18:55:28.250Z,102535.56
2022-09-21T18:57:56.607Z,102534.81
2022-09-21T19:00:30.911Z,102535.31
2022-09-21T19:03:16.525Z,102534.59
2022-09-21T19:06:09.466Z,102532.94
2022-09-21T19:09:11.316Z,102535.94
2022-09-21T19:11:56.931Z,102542.53
2022-09-21T19:14:38.380Z,102538.84
2022-09-21T19:17:20.448Z,102531.16
2022-09-21T19:19:53.803Z,102543.03
2022-09-21T19:22:37.215Z,102541.00
2022-09-21T19:25:31.060Z,102534.41
2022-09-21T19:28:10.065Z,102538.50
2022-09-21T19:30:38.670Z,102540.50
2022-09-21T19:33:48.829Z,102535.97
2022-09-21T19:36:14.112Z,102529.38
2022-09-21T19:38:40.795Z,102533.19
2022-09-21T19:41:35.363Z,102538.00
2022-09-21T19:44:16.332Z,102535.72
2022-09-21T19:46:58.474Z,102535.56
2022-09-21T19:49:35.883Z,102538.09
2022-09-21T19:52:05.453Z,102532.66
2022-09-21T19:54:51.075Z,102542.22
2022-09-21T19:57:38.702Z,102538.25
2022-09-21T20:00:08.333Z,102538.38
2022-09-21T20:03:07.361Z,102540.78
2022-09-21T20:06:05.844Z,102543.19
2022-09-21T20:08:41.839Z,102537.72
2022-09-21T20:11:17.243Z,102535.22
2022-09-21T20:13:46.566Z,102543.91
2022-09-21T20:16:33.015Z,102545.97
2022-09-21T20:19:03.340Z,102543.56
2022-09-21T20:21:42.242Z,102548.31
2022-09-21T20:24:19.705Z,102553.09
2022-09-21T20:26:50.811Z,102546.69
2022-09-21T20:29:18.395Z,102549.44
2022-09-21T20:31:47.262Z,102549.63
2022-09-21T20:34:14.015Z,102543.97
2022-09-21T20:36:40.497Z,102542.91
2022-09-21T20:39:07.059Z,102541.44
2022-09-21T20:41:33.547Z,102538.06
2022-09-21T20:44:01.672Z,102545.63
2022-09-21T20:46:28.206Z,102542.59
2022-09-21T20:49:00.125Z,102542.28
2022-09-21T20:51:27.616Z,102541.22
2022-09-21T20:53:54.097Z,102544.41
2022-09-21T20:56:20.564Z,102537.09
2022-09-21T20:58:47.050Z,102541.97
2022-09-21T21:01:13.574Z,102535.66
2022-09-21T21:03:40.111Z,102535.06
2022-09-21T21:06:08.423Z,102547.59
2022-09-21T21:08:34.927Z,102535.53
2022-09-21T21:11:01.491Z,102525.25
2022-09-21T21:13:31.120Z,102545.44
2022-09-21T21:16:00.083Z,102542.69
2022-09-21T21:18:27.450Z,102537.94
2022-09-21T21:20:53.940Z,102522.88
2022-09-21T21:23:20.498Z,102537.00
2022-09-21T21:25:47.913Z,102528.38
2022-09-21T21:28:14.506Z,102533.50
2022-09-21T21:30:40.991Z,102532.72
2022-09-21T21:33:07.494Z,102523.88
2022-09-21T21:35:33.990Z,102529.78
2022-09-21T21:38:00.591Z,102523.91
2022-09-21T21:40:27.233Z,102531.78
2022-09-21T21:42:55.304Z,102525.50
2022-09-21T21:45:21.943Z,102521.34
2022-09-21T21:47:48.424Z,102524.09
2022-09-21T21:50:14.973Z,102522.91
2022-09-21T21:52:41.513Z,102524.75
2022-09-21T21:55:08.595Z,102527.16
2022-09-21T21:57:35.087Z,102522.13
2022-09-21T22:00:01.797Z,102516.84
2022-09-21T22:02:32.026Z,102513.31
2022-09-21T22:04:59.002Z,102512.25
2022-09-21T22:07:25.507Z,102514.59
2022-09-21T22:09:51.993Z,102515.06
2022-09-21T22:12:18.502Z,102515.88
2022-09-21T22:14:46.293Z,102505.00
2022-09-21T22:17:12.914Z,102517.25
2022-09-21T22:19:39.402Z,102507.56
2022-09-21T22:22:05.913Z,102519.97
2022-09-21T22:24:32.399Z,102519.84
2022-09-21T22:26:58.921Z,102510.09
2022-09-21T22:29:25.387Z,102519.94
2022-09-21T22:31:51.948Z,102519.88
2022-09-21T22:34:20.149Z,102520.56
2022-09-21T22:36:46.697Z,102520.19
2022-09-21T22:39:13.317Z,102518.94
2022-09-21T22:41:41.653Z,102522.13
2022-09-21T22:44:09.975Z,102528.47
2022-09-21T22:46:36.675Z,102518.56
2022-09-21T22:49:03.674Z,102519.19
2022-09-21T22:51:30.703Z,102521.97
2022-09-21T22:53:57.939Z,102517.97
2022-09-21T22:56:26.904Z,102514.81
2022-09-21T22:58:55.886Z,102518.81
2022-09-21T23:01:28.499Z,102514.63
2022-09-21T23:03:57.709Z,102518.88
2022-09-21T23:06:26.542Z,102512.13
2022-09-21T23:08:54.662Z,102517.00
2022-09-21T23:11:27.083Z,102516.34
2022-09-21T23:13:55.371Z,102511.09
2022-09-21T23:16:23.334Z,102506.47
2022-09-21T23:18:50.417Z,102508.16
2022-09-21T23:21:20.007Z,102515.97
2022-09-21T23:23:46.563Z,102509.88
2022-09-21T23:26:17.999Z,102506.94
2022-09-21T23:28:50.743Z,102508.84
2022-09-21T23:31:17.723Z,102508.22
2022-09-21T23:33:47.246Z,102513.47
2022-09-21T23:36:16.326Z,102505.09
2022-09-21T23:38:43.591Z,102509.06
2022-09-21T23:41:12.890Z,102503.81
2022-09-21T23:43:41.190Z,102509.09
2022-09-21T23:46:09.323Z,102502.34
2022-09-21T23:48:36.413Z,102501.31
2022-09-21T23:51:03.475Z,102482.78
2022-09-21T23:53:30.948Z,102496.25
2022-09-21T23:55:57.765Z,102495.41
2022-09-21T23:58:26.407Z,102488.25
